Bitola, Macedonia
Current Conditions -  °F | °C
As of 7:30 AM on Sunday 21 Dec 2014 (Local Time) from LWOH Reporting Station
Scattered Clouds Scattered Clouds  
Wind Chill: 36°   Ceiling: Unl
Heat Index: 36°   Visibility: 6mi
Dew Point: 34°   Wind: 3mph
Humidity: 93%   Direction: 60°ENE
Pressure: 30.12"   Gusts: NA
Location:  41.04°N, 21.34°E
Report Text: LWOH 210530Z 06003KT 9999 SCT020 SCT033 02/01 Q1020
Loading
Personal Weather Stations






























Interactive Weather Map New forecast layout! Learn more

10-Day Weather Forecast

Advertisements
Track Severe Weather on mobile